createdAt,value
2018-01-30T03:22:41.580Z,9.27
2018-01-30T03:23:41.528Z,9.09
2018-01-30T03:24:41.558Z,9.09
2018-01-30T03:25:41.551Z,9.12
2018-01-30T03:26:41.483Z,9.12
2018-01-30T03:27:41.479Z,9.21
2018-01-30T03:28:41.468Z,9.04
2018-01-30T03:29:41.453Z,9.18
2018-01-30T03:30:41.454Z,9.25
2018-01-30T03:31:41.447Z,9.09
2018-01-30T03:32:41.441Z,9.12
2018-01-30T03:33:41.427Z,9.18
2018-01-30T03:34:41.420Z,9.23
2018-01-30T03:35:41.419Z,9.24
2018-01-30T03:36:41.408Z,9.25
2018-01-30T03:37:48.079Z,9.23
2018-01-30T03:38:41.396Z,9.24
2018-01-30T03:39:41.390Z,9.21
2018-01-30T03:40:41.388Z,9.23
2018-01-30T03:41:41.380Z,9.18
2018-01-30T03:42:41.375Z,9.25
2018-01-30T03:43:41.372Z,9.28
2018-01-30T03:44:41.364Z,9.25
2018-01-30T03:45:41.424Z,9.23
2018-01-30T03:46:41.352Z,9.28
2018-01-30T03:47:41.347Z,9.18
2018-01-30T03:48:41.344Z,9.43
2018-01-30T03:49:41.333Z,9.35
2018-01-30T03:50:41.338Z,9.28
2018-01-30T03:51:41.323Z,9.34
2018-01-30T03:52:41.322Z,9.34
2018-01-30T03:53:41.319Z,9.39
2018-01-30T03:54:41.314Z,9.43
2018-01-30T03:55:41.307Z,9.43
2018-01-30T03:56:41.303Z,9.39
2018-01-30T03:57:41.293Z,9.39
2018-01-30T03:58:41.295Z,9.38
2018-01-30T03:59:41.285Z,9.31
2018-01-30T04:00:41.282Z,9.31
2018-01-30T04:01:41.276Z,9.30
2018-01-30T04:02:41.267Z,9.28
2018-01-30T04:03:41.261Z,9.35
2018-01-30T04:04:41.264Z,9.39
2018-01-30T04:05:41.253Z,9.39
2018-01-30T04:06:41.246Z,9.50
2018-01-30T04:07:41.242Z,9.42
2018-01-30T04:08:41.246Z,9.50
2018-01-30T04:09:41.235Z,9.48
2018-01-30T04:10:41.233Z,9.52
2018-01-30T04:11:41.225Z,9.49
2018-01-30T04:12:41.222Z,9.52
2018-01-30T04:13:41.220Z,9.46
2018-01-30T04:14:41.217Z,9.52
2018-01-30T04:15:41.206Z,9.39
2018-01-30T04:16:41.205Z,9.43
2018-01-30T04:17:41.195Z,9.49
2018-01-30T04:18:41.189Z,9.52
2018-01-30T04:19:41.189Z,9.50
2018-01-30T04:20:41.183Z,9.38
2018-01-30T04:21:41.178Z,9.39
2018-01-30T04:22:41.173Z,9.49
2018-01-30T04:23:41.167Z,9.49
2018-01-30T04:24:41.162Z,9.52
2018-01-30T04:25:41.155Z,9.58
2018-01-30T04:26:41.157Z,9.56
2018-01-30T04:27:41.145Z,9.60
2018-01-30T04:28:41.143Z,9.57
2018-01-30T04:29:41.136Z,9.38
2018-01-30T04:30:41.133Z,9.40
2018-01-30T04:31:41.130Z,9.40
2018-01-30T04:32:41.136Z,9.49
2018-01-30T04:33:41.122Z,9.48
2018-01-30T04:34:41.121Z,9.43
2018-01-30T04:35:41.116Z,9.35
2018-01-30T04:36:41.111Z,9.35
2018-01-30T04:37:41.101Z,9.21
2018-01-30T04:38:41.106Z,9.32
2018-01-30T04:39:41.098Z,9.35
2018-01-30T04:40:41.087Z,9.35
2018-01-30T04:41:41.088Z,9.31
2018-01-30T04:42:41.083Z,9.40
2018-01-30T04:43:41.091Z,9.39
2018-01-30T04:44:41.074Z,9.34
2018-01-30T04:45:41.068Z,9.45
2018-01-30T04:46:41.065Z,9.25
2018-01-30T04:47:41.056Z,9.24
2018-01-30T04:48:41.052Z,9.21
2018-01-30T04:49:41.048Z,9.39
2018-01-30T04:50:49.791Z,9.28
2018-01-30T04:52:43.601Z,9.27
2018-01-30T04:53:43.271Z,9.39
2018-01-30T04:55:28.080Z,9.46
2018-01-30T04:56:27.890Z,9.45
2018-01-30T04:57:27.837Z,9.13
2018-01-30T04:58:27.804Z,9.21
2018-01-30T04:59:27.799Z,9.40
2018-01-30T05:00:27.794Z,9.28
2018-01-30T05:01:27.783Z,9.39
2018-01-30T05:02:27.783Z,9.35
2018-01-30T05:03:27.778Z,9.52
2018-01-30T05:04:27.774Z,9.18
2018-01-30T05:05:27.771Z,9.25
2018-01-30T05:06:27.760Z,9.05
2018-01-30T05:07:27.755Z,9.25
2018-01-30T05:08:27.757Z,9.34
2018-01-30T05:09:27.750Z,9.40
2018-01-30T05:10:27.756Z,9.35
2018-01-30T05:11:27.746Z,9.24
2018-01-30T05:12:27.737Z,9.09
2018-01-30T05:13:27.732Z,8.94
2018-01-30T05:14:27.726Z,8.91
2018-01-30T05:15:27.723Z,8.87
2018-01-30T05:16:34.904Z,8.88
2018-01-30T05:18:21.156Z,9.27
2018-01-30T05:19:29.768Z,9.28
2018-01-30T05:21:14.522Z,9.12
2018-01-30T05:22:14.481Z,9.20
2018-01-30T05:23:14.474Z,9.21
2018-01-30T05:24:14.469Z,9.25
2018-01-30T05:25:14.469Z,9.30
2018-01-30T05:26:23.409Z,9.28
2018-01-30T05:28:17.955Z,9.02
2018-01-30T05:29:17.510Z,8.97
2018-01-30T05:31:12.473Z,9.12
2018-01-30T05:32:10.988Z,9.09
2018-01-30T05:33:55.664Z,9.24
2018-01-30T05:34:55.654Z,9.27
2018-01-30T05:35:55.664Z,9.25
2018-01-30T05:36:55.684Z,9.27
2018-01-30T05:37:55.640Z,9.34
2018-01-30T05:38:55.638Z,9.42
2018-01-30T05:39:55.628Z,9.42
2018-01-30T05:40:55.623Z,9.52
2018-01-30T05:41:55.623Z,9.49
2018-01-30T05:42:55.656Z,9.52
2018-01-30T05:43:55.678Z,9.49
2018-01-30T05:44:55.600Z,9.46
2018-01-30T05:45:55.603Z,9.53
2018-01-30T05:46:55.599Z,9.46
2018-01-30T05:47:55.596Z,9.56
2018-01-30T05:48:55.608Z,9.40
2018-01-30T05:49:55.588Z,9.30
2018-01-30T05:50:55.589Z,9.12
2018-01-30T05:51:55.602Z,8.90
2018-01-30T05:52:55.579Z,8.76
2018-01-30T05:53:56.598Z,8.68
2018-01-30T05:54:55.595Z,8.62
2018-01-30T05:55:55.554Z,8.66
2018-01-30T05:56:55.558Z,8.66
2018-01-30T05:57:55.549Z,8.66
2018-01-30T05:58:55.552Z,8.69
2018-01-30T05:59:55.544Z,8.54
2018-01-30T06:00:55.529Z,8.48
2018-01-30T06:01:55.541Z,8.54
2018-01-30T06:02:55.526Z,8.55
2018-01-30T06:03:55.519Z,8.60
2018-01-30T06:04:55.518Z,8.53
2018-01-30T06:05:55.588Z,8.54
2018-01-30T06:06:55.566Z,8.60
2018-01-30T06:07:55.504Z,8.63
2018-01-30T06:08:55.496Z,8.69
2018-01-30T06:09:55.512Z,8.63
2018-01-30T06:10:55.491Z,8.66
2018-01-30T06:11:55.481Z,8.62
2018-01-30T06:12:55.481Z,8.51
2018-01-30T06:13:55.476Z,8.54
2018-01-30T06:14:55.541Z,8.57
2018-01-30T06:15:55.461Z,8.42
2018-01-30T06:16:55.459Z,8.33
2018-01-30T06:17:55.464Z,8.30
2018-01-30T06:18:55.464Z,8.40
2018-01-30T06:19:55.451Z,8.30
2018-01-30T06:20:55.463Z,8.30
2018-01-30T06:21:55.437Z,8.32
2018-01-30T06:22:55.433Z,8.26
2018-01-30T06:24:04.334Z,8.29
2018-01-30T06:25:48.980Z,7.99
2018-01-30T06:26:48.819Z,7.97
2018-01-30T06:27:48.808Z,7.99
2018-01-30T06:28:48.825Z,8.07
2018-01-30T06:29:48.864Z,7.90
2018-01-30T06:30:48.951Z,7.94
2018-01-30T06:31:48.789Z,7.90
2018-01-30T06:32:48.788Z,7.92
2018-01-30T06:33:48.776Z,8.02
2018-01-30T06:34:48.776Z,7.99
2018-01-30T06:35:48.778Z,7.81
2018-01-30T06:36:48.764Z,7.77
2018-01-30T06:37:48.754Z,7.81
2018-01-30T06:38:48.753Z,7.87
2018-01-30T06:39:48.751Z,7.84
2018-01-30T06:40:57.497Z,7.89
2018-01-30T06:42:43.213Z,7.74
2018-01-30T06:43:43.120Z,7.87
2018-01-30T06:44:43.109Z,7.63
2018-01-30T06:45:43.170Z,7.69
2018-01-30T06:46:43.105Z,7.77
2018-01-30T06:47:43.089Z,7.74
2018-01-30T06:48:43.084Z,7.67
2018-01-30T06:49:43.080Z,7.67
2018-01-30T06:50:43.077Z,7.55
2018-01-30T06:51:43.072Z,7.45
2018-01-30T06:52:43.062Z,7.56
2018-01-30T06:53:43.063Z,7.59
2018-01-30T06:54:43.056Z,7.59
2018-01-30T06:55:43.052Z,7.47
2018-01-30T06:56:43.044Z,7.37
2018-01-30T06:57:43.041Z,7.52
2018-01-30T06:58:43.038Z,7.62
2018-01-30T06:59:43.029Z,7.74
2018-01-30T07:00:43.023Z,7.50
2018-01-30T07:01:43.017Z,7.45
2018-01-30T07:02:43.011Z,7.50
2018-01-30T07:03:43.054Z,7.52
2018-01-30T07:04:43.007Z,7.53
2018-01-30T07:05:43.000Z,7.71
2018-01-30T07:06:42.995Z,7.56
2018-01-30T07:07:42.981Z,7.62
2018-01-30T07:08:42.980Z,7.67
2018-01-30T07:09:42.978Z,7.66
2018-01-30T07:10:42.968Z,7.67
2018-01-30T07:11:43.039Z,7.77
2018-01-30T07:12:42.957Z,7.79
2018-01-30T07:13:42.953Z,7.78
2018-01-30T07:14:42.942Z,7.74
2018-01-30T07:15:42.937Z,7.75
2018-01-30T07:16:42.938Z,7.96
2018-01-30T07:17:42.961Z,8.11
2018-01-30T07:18:42.924Z,8.10
2018-01-30T07:19:42.924Z,8.07
2018-01-30T07:20:42.929Z,8.28
2018-01-30T07:21:42.908Z,8.08
2018-01-30T07:22:42.900Z,8.07
2018-01-30T07:23:42.987Z,8.02
2018-01-30T07:24:43.026Z,8.00
2018-01-30T07:25:42.892Z,8.08
2018-01-30T07:26:42.891Z,8.03
2018-01-30T07:27:42.874Z,8.17
2018-01-30T07:28:42.870Z,8.30
2018-01-30T07:29:42.873Z,8.42
2018-01-30T07:30:42.865Z,8.21
2018-01-30T07:31:42.857Z,8.14
2018-01-30T07:32:42.849Z,8.30
2018-01-30T07:33:42.847Z,8.30
2018-01-30T07:34:42.859Z,8.45
2018-01-30T07:35:42.840Z,8.55
2018-01-30T07:36:42.831Z,8.55
2018-01-30T07:37:42.825Z,8.65
2018-01-30T07:38:42.821Z,8.66
2018-01-30T07:39:42.813Z,8.63
2018-01-30T07:40:42.813Z,8.66
2018-01-30T07:41:42.807Z,8.65
2018-01-30T07:42:42.807Z,8.68
2018-01-30T07:43:42.824Z,8.60
2018-01-30T07:44:42.788Z,8.58
2018-01-30T07:45:42.790Z,8.60
2018-01-30T07:46:42.781Z,8.65
2018-01-30T07:47:42.775Z,8.66
2018-01-30T07:48:42.768Z,8.48
2018-01-30T07:49:42.770Z,8.51
2018-01-30T07:50:42.794Z,8.55
2018-01-30T07:51:42.788Z,8.60
2018-01-30T07:52:51.461Z,8.69
2018-01-30T07:54:36.175Z,8.45
2018-01-30T07:55:36.138Z,8.21
2018-01-30T07:56:36.171Z,8.35
2018-01-30T07:57:36.121Z,8.21
2018-01-30T07:58:36.131Z,8.00
2018-01-30T07:59:36.103Z,8.17
2018-01-30T08:00:36.154Z,8.00
2018-01-30T08:01:36.099Z,8.12
2018-01-30T08:02:36.093Z,8.22
2018-01-30T08:03:44.791Z,8.45
2018-01-30T08:05:38.636Z,8.72
2018-01-30T08:06:38.171Z,8.69
2018-01-30T08:08:22.879Z,8.75
2018-01-30T08:09:22.848Z,8.86
2018-01-30T08:10:22.878Z,8.91
2018-01-30T08:11:22.862Z,8.96
2018-01-30T08:12:22.897Z,8.93
2018-01-30T08:13:22.847Z,8.93
2018-01-30T08:14:22.830Z,9.06
2018-01-30T08:15:22.821Z,8.97
2018-01-30T08:16:22.821Z,9.09
2018-01-30T08:17:22.806Z,8.90
2018-01-30T08:18:22.802Z,8.81
2018-01-30T08:19:22.796Z,8.94
2018-01-30T08:20:22.798Z,8.91
2018-01-30T08:21:22.797Z,8.91
2018-01-30T08:22:22.823Z,9.13
2018-01-30T08:23:22.782Z,9.28
2018-01-30T08:24:22.780Z,9.24
2018-01-30T08:25:22.790Z,9.27
2018-01-30T08:26:22.771Z,9.20
2018-01-30T08:27:22.763Z,9.18
2018-01-30T08:28:22.756Z,9.06
2018-01-30T08:29:22.751Z,8.75
2018-01-30T08:30:22.753Z,8.78
2018-01-30T08:31:22.758Z,8.81
2018-01-30T08:32:22.740Z,9.06
2018-01-30T08:33:22.740Z,9.23
2018-01-30T08:34:22.787Z,9.21
2018-01-30T08:35:22.727Z,9.31
2018-01-30T08:36:22.721Z,9.06
2018-01-30T08:37:22.716Z,9.24
2018-01-30T08:38:22.724Z,8.90
2018-01-30T08:39:22.707Z,8.68
2018-01-30T08:40:22.711Z,8.66
2018-01-30T08:41:22.698Z,8.75
2018-01-30T08:42:22.693Z,8.76
2018-01-30T08:43:22.688Z,8.76
2018-01-30T08:44:22.684Z,9.01
2018-01-30T08:45:22.673Z,9.27
2018-01-30T08:46:22.680Z,9.06
2018-01-30T08:47:22.676Z,8.97
2018-01-30T08:48:22.660Z,8.88
2018-01-30T08:49:22.655Z,8.79
2018-01-30T08:50:22.652Z,8.65
2018-01-30T08:51:22.646Z,8.60
2018-01-30T08:52:22.647Z,8.42
2018-01-30T08:53:22.643Z,8.51
2018-01-30T08:54:22.636Z,8.51
2018-01-30T08:55:22.637Z,8.39
2018-01-30T08:56:22.668Z,8.40
2018-01-30T08:57:22.642Z,8.35
2018-01-30T08:58:22.623Z,8.48
2018-01-30T08:59:22.614Z,8.58
2018-01-30T09:00:22.611Z,8.78
2018-01-30T09:01:22.604Z,8.71
2018-01-30T09:02:22.600Z,8.62
2018-01-30T09:03:22.650Z,8.71
2018-01-30T09:04:22.598Z,8.60
2018-01-30T09:05:22.608Z,8.50
2018-01-30T09:06:22.579Z,8.28
2018-01-30T09:07:22.592Z,8.18
2018-01-30T09:08:22.567Z,8.33
2018-01-30T09:09:22.564Z,8.26
2018-01-30T09:10:22.566Z,8.30
2018-01-30T09:11:22.554Z,8.47
2018-01-30T09:12:22.555Z,8.58
2018-01-30T09:13:22.552Z,8.68
2018-01-30T09:14:22.552Z,8.53
2018-01-30T09:15:22.542Z,8.51
2018-01-30T09:16:22.564Z,8.47
2018-01-30T09:17:22.534Z,8.50
2018-01-30T09:18:22.525Z,8.57
2018-01-30T09:19:22.522Z,8.57
2018-01-30T09:20:22.511Z,8.66
2018-01-30T09:21:22.506Z,8.66
2018-01-30T09:22:22.516Z,8.60
2018-01-30T09:23:22.497Z,8.65
2018-01-30T09:24:22.549Z,8.50
2018-01-30T09:25:22.489Z,8.42
2018-01-30T09:26:22.493Z,8.62
2018-01-30T09:27:22.483Z,8.57
2018-01-30T09:28:22.479Z,8.55
2018-01-30T09:29:22.483Z,8.84
2018-01-30T09:30:22.464Z,8.58
2018-01-30T09:31:22.467Z,8.76
2018-01-30T09:32:22.459Z,8.69
2018-01-30T09:33:22.460Z,8.60
2018-01-30T09:34:22.452Z,8.50
2018-01-30T09:35:22.442Z,8.57
2018-01-30T09:36:22.436Z,8.51
2018-01-30T09:37:22.442Z,8.72
2018-01-30T09:38:22.426Z,8.75
2018-01-30T09:39:22.436Z,8.69
2018-01-30T09:40:22.423Z,8.50
2018-01-30T09:41:22.419Z,8.76
2018-01-30T09:42:22.536Z,8.66
2018-01-30T09:43:22.406Z,8.58
2018-01-30T09:44:22.402Z,8.69
2018-01-30T09:45:22.397Z,8.66
2018-01-30T09:46:22.391Z,8.73
2018-01-30T09:47:22.383Z,8.86
2018-01-30T09:48:22.389Z,8.71
2018-01-30T09:49:22.380Z,8.63
2018-01-30T09:50:22.367Z,8.66
2018-01-30T09:51:23.945Z,8.65
2018-01-30T09:52:22.363Z,8.62
2018-01-30T09:53:22.351Z,8.51
2018-01-30T09:54:22.349Z,8.63
2018-01-30T09:55:22.346Z,8.69
2018-01-30T09:56:22.344Z,8.66
2018-01-30T09:57:22.361Z,9.04
2018-01-30T09:58:22.383Z,8.99
2018-01-30T09:59:22.331Z,8.78
2018-01-30T10:00:22.345Z,8.68
2018-01-30T10:01:22.322Z,8.62
2018-01-30T10:02:22.313Z,8.73
2018-01-30T10:03:22.318Z,8.76
2018-01-30T10:04:22.310Z,8.62
2018-01-30T10:05:22.298Z,8.63
2018-01-30T10:06:22.321Z,8.63
2018-01-30T10:07:31.017Z,8.75
2018-01-30T10:09:15.742Z,9.30
2018-01-30T10:10:15.686Z,9.28
2018-01-30T10:11:15.700Z,9.23
2018-01-30T10:12:15.685Z,8.87
2018-01-30T10:13:15.740Z,8.75
2018-01-30T10:14:15.708Z,9.25
2018-01-30T10:15:15.708Z,9.61
2018-01-30T10:16:15.738Z,9.63
2018-01-30T10:17:15.660Z,9.76
2018-01-30T10:18:15.651Z,9.94
2018-01-30T10:19:15.639Z,10.21
2018-01-30T10:20:15.635Z,10.10
2018-01-30T10:21:15.639Z,10.43
2018-01-30T10:22:15.632Z,10.09
2018-01-30T10:23:15.653Z,10.32
2018-01-30T10:24:24.260Z,10.43
2018-01-30T10:26:18.116Z,10.36
2018-01-30T10:27:09.014Z,10.37
2018-01-30T10:28:09.038Z,10.51
2018-01-30T10:29:09.030Z,10.66
2018-01-30T10:30:09.022Z,10.73
2018-01-30T10:31:09.003Z,10.55
2018-01-30T10:32:09.001Z,10.88
2018-01-30T10:33:08.991Z,11.09
2018-01-30T10:34:08.991Z,11.09
2018-01-30T10:35:09.002Z,11.14
2018-01-30T10:37:30.092Z,11.14
2018-01-30T10:38:30.074Z,11.32
2018-01-30T10:39:30.015Z,11.49
2018-01-30T10:40:39.683Z,11.01
2018-01-30T10:42:32.490Z,10.43
2018-01-30T10:44:46.732Z,10.65
2018-01-30T10:45:46.667Z,10.53
2018-01-30T10:46:46.659Z,10.43
2018-01-30T10:47:46.717Z,10.43
2018-01-30T10:48:55.348Z,10.39
2018-01-30T10:50:49.173Z,10.65
2018-01-30T10:51:48.769Z,10.44
2018-01-30T10:53:33.498Z,10.96
2018-01-30T10:54:33.429Z,11.16
2018-01-30T10:55:33.415Z,11.25
2018-01-30T10:56:33.434Z,11.02
2018-01-30T10:57:33.408Z,11.13
2018-01-30T10:58:33.401Z,11.24
2018-01-30T10:59:33.411Z,11.19
2018-01-30T11:00:33.395Z,11.28
2018-01-30T11:01:33.394Z,11.29
2018-01-30T11:02:33.420Z,11.39
2018-01-30T11:03:33.386Z,10.91
2018-01-30T11:04:33.376Z,10.65
2018-01-30T11:05:33.373Z,10.71
2018-01-30T11:06:33.368Z,10.96
2018-01-30T11:07:33.377Z,10.96
2018-01-30T11:08:33.368Z,11.01
2018-01-30T11:09:33.370Z,10.99
2018-01-30T11:10:33.359Z,10.66
2018-01-30T11:11:33.364Z,10.58
2018-01-30T11:12:33.542Z,10.47
2018-01-30T11:13:33.350Z,10.51
2018-01-30T11:14:33.339Z,10.42
2018-01-30T11:15:33.338Z,10.42
2018-01-30T11:16:33.335Z,10.62
2018-01-30T11:17:33.335Z,11.07
2018-01-30T11:18:33.342Z,11.27
2018-01-30T11:19:33.367Z,11.44
2018-01-30T11:20:33.370Z,11.56
2018-01-30T11:21:33.320Z,11.77
2018-01-30T11:22:33.317Z,11.71
2018-01-30T11:23:33.308Z,11.80
2018-01-30T11:24:33.386Z,11.47
2018-01-30T11:25:33.301Z,11.50
2018-01-30T11:26:33.303Z,11.46
2018-01-30T11:27:33.305Z,11.53
2018-01-30T11:28:33.309Z,11.44
2018-01-30T11:29:33.298Z,11.43
2018-01-30T11:30:33.287Z,11.39
2018-01-30T11:31:33.334Z,11.53
2018-01-30T11:32:33.310Z,11.82
2018-01-30T11:33:33.386Z,11.93
2018-01-30T11:34:33.273Z,12.01
2018-01-30T11:35:33.275Z,12.11
2018-01-30T11:36:33.268Z,12.13
2018-01-30T11:37:33.275Z,12.19
2018-01-30T11:38:33.286Z,12.29
2018-01-30T11:39:33.323Z,12.13
2018-01-30T11:40:33.306Z,11.93
2018-01-30T11:41:33.275Z,11.78
2018-01-30T11:42:33.393Z,11.96
2018-01-30T11:43:33.247Z,12.13
2018-01-30T11:44:33.248Z,12.11
2018-01-30T11:45:41.975Z,12.13
2018-01-30T11:47:26.704Z,12.13
2018-01-30T11:48:35.455Z,12.08
2018-01-30T11:50:20.132Z,11.99
2018-01-30T11:51:20.027Z,11.96
2018-01-30T11:53:20.062Z,11.75
2018-01-30T11:54:20.014Z,11.77
2018-01-30T11:55:20.007Z,11.78
2018-01-30T11:56:20.006Z,11.90
2018-01-30T11:57:20.017Z,11.82
2018-01-30T11:58:28.769Z,11.64
2018-01-30T12:00:13.525Z,11.78
2018-01-30T12:01:13.391Z,11.74
2018-01-30T12:02:13.435Z,11.82
2018-01-30T12:03:13.413Z,11.82
2018-01-30T12:04:13.461Z,11.90
2018-01-30T12:05:13.383Z,11.83
2018-01-30T12:06:13.398Z,11.93
2018-01-30T12:07:13.374Z,11.80
2018-01-30T12:09:34.448Z,11.46
2018-01-30T12:10:44.128Z,11.47
2018-01-30T12:12:28.806Z,11.65
2018-01-30T12:13:28.779Z,11.70
2018-01-30T12:14:28.780Z,11.65
2018-01-30T12:15:28.856Z,11.74
2018-01-30T12:16:28.791Z,11.78
2018-01-30T12:17:28.832Z,11.83
2018-01-30T12:18:28.761Z,11.86
2018-01-30T12:19:28.758Z,11.87
2018-01-30T12:20:28.758Z,11.86
2018-01-30T12:21:28.759Z,11.82
2018-01-30T12:22:28.748Z,11.82
2018-01-30T12:23:28.755Z,11.89
2018-01-30T12:24:28.754Z,11.90
2018-01-30T12:25:28.742Z,11.93
2018-01-30T12:26:28.743Z,11.83
2018-01-30T12:27:28.735Z,11.83
2018-01-30T12:28:28.735Z,11.96
2018-01-30T12:29:28.734Z,11.97
2018-01-30T12:30:28.734Z,11.83
2018-01-30T12:31:28.720Z,11.75
2018-01-30T12:32:28.717Z,11.72
2018-01-30T12:33:28.737Z,11.72
2018-01-30T12:34:28.713Z,11.83
2018-01-30T12:35:28.710Z,11.96
2018-01-30T12:36:28.710Z,11.89
2018-01-30T12:37:28.704Z,11.99
2018-01-30T12:38:28.704Z,11.85
2018-01-30T12:39:37.482Z,11.67
2018-01-30T12:41:32.209Z,11.52
2018-01-30T12:42:30.744Z,11.65
2018-01-30T12:44:15.829Z,11.74
2018-01-30T12:45:15.536Z,11.87
2018-01-30T12:46:15.735Z,11.87
2018-01-30T12:47:15.494Z,12.09
2018-01-30T12:48:15.486Z,11.78
2018-01-30T12:49:15.514Z,11.82
2018-01-30T12:50:15.474Z,11.90
2018-01-30T12:51:15.475Z,11.71
2018-01-30T12:52:15.477Z,11.56
2018-01-30T12:53:15.473Z,11.78
2018-01-30T12:54:15.459Z,11.65
2018-01-30T12:55:15.468Z,11.64
2018-01-30T12:56:15.465Z,11.54
2018-01-30T12:57:15.454Z,11.50
2018-01-30T12:58:15.455Z,11.50
2018-01-30T12:59:15.460Z,11.61
2018-01-30T13:00:15.468Z,11.75
2018-01-30T13:01:15.443Z,11.57
2018-01-30T13:02:15.441Z,11.70
2018-01-30T13:03:15.441Z,11.52
2018-01-30T13:04:15.438Z,11.70
2018-01-30T13:05:15.463Z,11.75
2018-01-30T13:06:15.430Z,11.83
2018-01-30T13:07:15.430Z,11.70
2018-01-30T13:08:15.448Z,11.77
2018-01-30T13:09:15.445Z,11.70
2018-01-30T13:10:15.430Z,11.80
2018-01-30T13:11:15.417Z,11.75
2018-01-30T13:12:15.411Z,11.80
2018-01-30T13:13:15.408Z,11.85
2018-01-30T13:14:15.401Z,11.86
2018-01-30T13:15:15.399Z,11.75
2018-01-30T13:16:15.391Z,11.78
2018-01-30T13:17:15.396Z,11.77
2018-01-30T13:18:15.398Z,11.83
2018-01-30T13:19:15.386Z,11.83
2018-01-30T13:20:15.468Z,11.99
2018-01-30T13:21:15.382Z,11.90
2018-01-30T13:22:15.381Z,11.78
2018-01-30T13:23:15.382Z,11.87
2018-01-30T13:24:15.370Z,11.85
2018-01-30T13:25:15.372Z,11.75
2018-01-30T13:26:15.363Z,11.47
2018-01-30T13:27:15.414Z,11.49
2018-01-30T13:28:15.356Z,11.35
2018-01-30T13:29:15.386Z,11.44
2018-01-30T13:30:15.407Z,11.39
2018-01-30T13:31:15.360Z,11.49
2018-01-30T13:32:15.434Z,11.56
2018-01-30T13:33:15.410Z,11.46
2018-01-30T13:34:15.405Z,11.53
2018-01-30T13:35:15.350Z,11.61
2018-01-30T13:36:15.358Z,11.49
2018-01-30T13:37:24.071Z,11.70
2018-01-30T13:39:08.788Z,11.72
2018-01-30T13:40:08.769Z,12.01
2018-01-30T13:41:08.734Z,11.87
2018-01-30T13:42:08.750Z,11.71
2018-01-30T13:43:17.632Z,11.80
2018-01-30T13:45:02.164Z,11.44
2018-01-30T13:46:02.108Z,11.62
2018-01-30T13:47:10.806Z,11.52
2018-01-30T13:48:55.566Z,11.70
2018-01-30T13:49:57.080Z,11.90
2018-01-30T13:51:04.316Z,11.71
2018-01-30T13:52:48.997Z,11.72
2018-01-30T13:53:48.910Z,11.65
2018-01-30T13:54:57.718Z,11.77
2018-01-30T13:56:42.427Z,11.97
2018-01-30T13:57:42.313Z,11.96
2018-01-30T13:58:42.373Z,11.85
2018-01-30T13:59:42.342Z,12.06
2018-01-30T14:02:12.555Z,12.12
2018-01-30T14:03:03.414Z,12.15
2018-01-30T14:04:03.283Z,12.11
2018-01-30T14:05:12.175Z,11.94
2018-01-30T14:06:56.734Z,12.04
2018-01-30T14:07:56.738Z,11.82
2018-01-30T14:08:56.677Z,11.96
2018-01-30T14:09:56.904Z,11.94
2018-01-30T14:10:56.648Z,11.74
2018-01-30T14:11:56.642Z,11.78
2018-01-30T14:12:56.651Z,11.80
2018-01-30T14:13:56.642Z,11.54
2018-01-30T14:14:56.634Z,11.49
2018-01-30T14:15:56.636Z,11.54
2018-01-30T14:16:56.630Z,11.52
2018-01-30T14:18:05.353Z,11.74
2018-01-30T14:19:50.099Z,11.49
2018-01-30T14:20:50.022Z,11.72
2018-01-30T14:21:50.082Z,11.64
2018-01-30T14:22:50.116Z,11.62
2018-01-30T14:23:49.996Z,11.75
2018-01-30T14:24:49.993Z,11.80
2018-01-30T14:25:49.986Z,11.53
2018-01-30T14:26:49.983Z,11.38
2018-01-30T14:27:49.989Z,11.56
2018-01-30T14:28:49.977Z,11.68
2018-01-30T14:29:49.976Z,11.61
2018-01-30T14:30:49.984Z,11.71
2018-01-30T14:31:49.979Z,11.80
2018-01-30T14:32:49.969Z,11.59
2018-01-30T14:33:49.963Z,11.62
2018-01-30T14:34:49.962Z,11.41
2018-01-30T14:35:49.956Z,11.57
2018-01-30T14:36:49.958Z,11.67
2018-01-30T14:37:49.963Z,11.68
2018-01-30T14:38:49.957Z,11.78
2018-01-30T14:39:49.991Z,11.75
2018-01-30T14:40:49.947Z,11.57
2018-01-30T14:41:49.940Z,11.64
2018-01-30T14:42:49.978Z,11.72
2018-01-30T14:43:49.949Z,11.80
2018-01-30T14:44:49.935Z,11.75
2018-01-30T14:45:49.933Z,11.78
2018-01-30T14:46:49.926Z,11.56
2018-01-30T14:47:49.918Z,11.32
2018-01-30T14:48:49.922Z,11.47
2018-01-30T14:49:49.925Z,11.67
2018-01-30T14:50:49.909Z,11.52
2018-01-30T14:51:49.909Z,11.71
2018-01-30T14:52:49.910Z,11.46
2018-01-30T14:53:49.897Z,11.35
2018-01-30T14:54:49.896Z,11.31
2018-01-30T14:55:49.896Z,11.38
2018-01-30T14:56:49.901Z,11.31
2018-01-30T14:57:58.604Z,11.38
2018-01-30T14:59:43.362Z,11.35
2018-01-30T15:00:43.275Z,11.27
2018-01-30T15:01:43.293Z,11.20
2018-01-30T15:02:43.344Z,11.27
2018-01-30T15:03:43.257Z,11.29
2018-01-30T15:04:43.261Z,11.21
2018-01-30T15:05:43.319Z,11.27
2018-01-30T15:06:44.878Z,11.29
2018-01-30T15:07:43.253Z,10.99
2018-01-30T15:08:43.244Z,11.21
2018-01-30T15:09:43.241Z,11.14
2018-01-30T15:10:43.241Z,11.24
2018-01-30T15:11:43.235Z,11.21
2018-01-30T15:12:43.228Z,11.25
2018-01-30T15:13:43.236Z,11.27
2018-01-30T15:14:43.227Z,11.21
2018-01-30T15:15:43.223Z,11.28
2018-01-30T15:16:43.214Z,11.27
2018-01-30T15:17:43.212Z,11.21
2018-01-30T15:18:43.222Z,11.25
2018-01-30T15:19:43.213Z,11.09
2018-01-30T15:20:43.200Z,11.25
2018-01-30T15:21:43.213Z,11.19
2018-01-30T15:22:43.197Z,10.96
2018-01-30T15:23:43.204Z,11.02
2018-01-30T15:24:43.194Z,10.88
2018-01-30T15:25:43.246Z,10.98
2018-01-30T15:26:43.186Z,11.03
2018-01-30T15:27:43.185Z,10.98
2018-01-30T15:28:43.173Z,10.89
2018-01-30T15:31:13.337Z,11.03
2018-01-30T15:32:12.933Z,10.98
2018-01-30T15:34:06.715Z,10.83
2018-01-30T15:34:57.665Z,10.84
2018-01-30T15:35:57.653Z,10.86
2018-01-30T15:36:57.691Z,10.92
2018-01-30T15:37:57.633Z,10.89
2018-01-30T15:38:57.623Z,10.73
2018-01-30T15:39:57.617Z,10.77
2018-01-30T15:40:57.644Z,10.66
2018-01-30T15:41:57.624Z,10.71
2018-01-30T15:42:57.619Z,10.68
2018-01-30T15:43:57.601Z,10.78
2018-01-30T15:46:19.705Z,10.78
2018-01-30T15:47:19.692Z,10.63
2018-01-30T15:48:19.651Z,10.70
2018-01-30T15:49:19.637Z,10.58
2018-01-30T15:50:19.626Z,10.71
2018-01-30T15:51:19.625Z,10.71
2018-01-30T15:52:19.621Z,10.73
2018-01-30T15:53:19.649Z,10.59
2018-01-30T15:54:19.616Z,10.68
2018-01-30T15:55:19.661Z,10.56
2018-01-30T15:56:19.615Z,10.53
2018-01-30T15:57:19.681Z,10.42
2018-01-30T15:58:19.599Z,10.58
2018-01-30T15:59:19.599Z,10.55
2018-01-30T16:00:19.596Z,10.42
2018-01-30T16:01:19.592Z,10.43
2018-01-30T16:02:19.584Z,10.39
2018-01-30T16:03:19.613Z,10.53
2018-01-30T16:04:19.587Z,10.40
2018-01-30T16:05:19.616Z,10.37
2018-01-30T16:06:19.574Z,10.46
2018-01-30T16:07:19.566Z,10.53
2018-01-30T16:08:19.569Z,10.51
2018-01-30T16:09:19.563Z,10.40
2018-01-30T16:10:19.559Z,10.43
2018-01-30T16:11:19.558Z,10.55
2018-01-30T16:12:19.602Z,10.36
2018-01-30T16:13:19.553Z,10.36
2018-01-30T16:14:19.568Z,10.37
2018-01-30T16:15:19.554Z,10.39
2018-01-30T16:16:19.539Z,10.39
2018-01-30T16:17:19.532Z,10.40
2018-01-30T16:18:19.541Z,10.39
2018-01-30T16:19:19.522Z,10.40
2018-01-30T16:20:19.559Z,10.47
2018-01-30T16:21:19.520Z,10.40
2018-01-30T16:22:19.545Z,10.42
2018-01-30T16:23:19.508Z,10.39
2018-01-30T16:24:19.537Z,10.52
2018-01-30T16:25:19.499Z,10.58
2018-01-30T16:26:19.508Z,10.56
2018-01-30T16:27:19.491Z,10.39
2018-01-30T16:28:19.487Z,10.46
2018-01-30T16:29:19.493Z,10.36
2018-01-30T16:30:19.483Z,10.44
2018-01-30T16:31:19.479Z,10.39
2018-01-30T16:32:19.475Z,10.42
2018-01-30T16:33:19.468Z,10.42
2018-01-30T16:34:19.472Z,10.42
2018-01-30T16:35:19.466Z,10.36
2018-01-30T16:36:19.464Z,10.37
2018-01-30T16:37:19.457Z,10.40
2018-01-30T16:38:19.448Z,10.39
2018-01-30T16:39:19.451Z,10.33
2018-01-30T16:40:19.447Z,10.34
2018-01-30T16:41:19.456Z,10.39
2018-01-30T16:42:19.445Z,10.28
2018-01-30T16:43:19.445Z,10.32
2018-01-30T16:44:19.429Z,10.30
2018-01-30T16:45:19.423Z,10.37
2018-01-30T16:46:19.425Z,10.34
2018-01-30T16:47:19.414Z,10.39
2018-01-30T16:48:19.441Z,10.39
2018-01-30T16:49:19.414Z,10.25
2018-01-30T16:50:19.406Z,10.28
2018-01-30T16:51:19.399Z,10.39
2018-01-30T16:52:19.409Z,10.33
2018-01-30T16:53:19.391Z,10.32
2018-01-30T16:54:19.417Z,10.34
2018-01-30T16:55:19.387Z,10.30
2018-01-30T16:56:19.405Z,10.12
2018-01-30T16:57:19.384Z,10.17
2018-01-30T16:58:19.486Z,10.28
2018-01-30T16:59:19.382Z,10.28
2018-01-30T17:00:19.371Z,10.26
2018-01-30T17:01:19.375Z,10.26
2018-01-30T17:02:19.418Z,10.18
2018-01-30T17:03:19.359Z,10.12
2018-01-30T17:04:19.426Z,10.14
2018-01-30T17:05:19.348Z,10.15